sensor_id;sensor_type;location;lat;lon;timestamp;pressure;altitude;pressure_sealevel;temperature;humidity
83264;BME280;73156;50.988;11.034;2024-02-21T00:01:41;100042.63;;;19.02;49.67
83264;BME280;73156;50.988;11.034;2024-02-21T00:04:07;100047.09;;;19.03;49.64
83264;BME280;73156;50.988;11.034;2024-02-21T00:06:32;100050.75;;;19.03;49.76
83264;BME280;73156;50.988;11.034;2024-02-21T00:08:57;100034.84;;;19.04;49.76
83264;BME280;73156;50.988;11.034;2024-02-21T00:11:23;100010.22;;;18.89;49.50
83264;BME280;73156;50.988;11.034;2024-02-21T00:13:48;100035.09;;;19.02;50.02
83264;BME280;73156;50.988;11.034;2024-02-21T00:16:13;100026.72;;;19.02;49.66
83264;BME280;73156;50.988;11.034;2024-02-21T00:18:40;100022.00;;;19.03;49.78
83264;BME280;73156;50.988;11.034;2024-02-21T00:21:06;100010.50;;;18.99;49.46
83264;BME280;73156;50.988;11.034;2024-02-21T00:23:31;100026.72;;;19.02;49.44
83264;BME280;73156;50.988;11.034;2024-02-21T00:25:56;100018.59;;;19.01;49.44
83264;BME280;73156;50.988;11.034;2024-02-21T00:28:21;99983.38;;;18.77;49.46
83264;BME280;73156;50.988;11.034;2024-02-21T00:30:47;100023.09;;;19.02;49.48
83264;BME280;73156;50.988;11.034;2024-02-21T00:33:13;100023.09;;;19.02;49.29
83264;BME280;73156;50.988;11.034;2024-02-21T00:35:39;100015.81;;;19.01;49.58
83264;BME280;73156;50.988;11.034;2024-02-21T00:38:04;100014.97;;;19.00;49.33
83264;BME280;73156;50.988;11.034;2024-02-21T00:40:29;99986.19;;;18.77;49.27
83264;BME280;73156;50.988;11.034;2024-02-21T00:42:54;100008.53;;;19.00;49.30
83264;BME280;73156;50.988;11.034;2024-02-21T00:45:20;99987.06;;;18.89;49.53
83264;BME280;73156;50.988;11.034;2024-02-21T00:47:45;99974.56;;;18.80;49.27
83264;BME280;73156;50.988;11.034;2024-02-21T00:50:11;100009.63;;;18.99;49.40
83264;BME280;73156;50.988;11.034;2024-02-21T00:52:36;100010.50;;;18.99;49.43
83264;BME280;73156;50.988;11.034;2024-02-21T00:55:01;100005.75;;;19.00;49.42
83264;BME280;73156;50.988;11.034;2024-02-21T00:57:26;99996.56;;;18.99;49.39
83264;BME280;73156;50.988;11.034;2024-02-21T00:59:51;99968.50;;;18.83;49.47
83264;BME280;73156;50.988;11.034;2024-02-21T01:02:17;99993.75;;;18.99;49.28
83264;BME280;73156;50.988;11.034;2024-02-21T01:04:42;99982.56;;;18.88;49.28
83264;BME280;73156;50.988;11.034;2024-02-21T01:07:07;99959.41;;;18.76;49.35
83264;BME280;73156;50.988;11.034;2024-02-21T01:09:33;99997.63;;;18.98;49.36
83264;BME280;73156;50.988;11.034;2024-02-21T01:11:58;99900.31;;;18.44;49.27
83264;BME280;73156;50.988;11.034;2024-02-21T01:14:23;99997.63;;;18.98;49.26
83264;BME280;73156;50.988;11.034;2024-02-21T01:16:48;100004.06;;;18.99;49.12
83264;BME280;73156;50.988;11.034;2024-02-21T01:19:14;99981.25;;;18.90;48.99
83264;BME280;73156;50.988;11.034;2024-02-21T01:21:39;99969.84;;;18.92;49.10
83264;BME280;73156;50.988;11.034;2024-02-21T01:24:04;99987.31;;;18.99;49.01
83264;BME280;73156;50.988;11.034;2024-02-21T01:26:29;99955.63;;;18.82;49.11
83264;BME280;73156;50.988;11.034;2024-02-21T01:28:55;99982.84;;;18.98;49.18
83264;BME280;73156;50.988;11.034;2024-02-21T01:31:20;99978.09;;;18.98;49.13
83264;BME280;73156;50.988;11.034;2024-02-21T01:33:45;99924.34;;;18.68;49.30
83264;BME280;73156;50.988;11.034;2024-02-21T01:36:10;99970.59;;;18.99;49.27
83264;BME280;73156;50.988;11.034;2024-02-21T01:38:36;99926.19;;;18.74;49.12
83264;BME280;73156;50.988;11.034;2024-02-21T01:41:01;99960.53;;;18.98;49.09
83264;BME280;73156;50.988;11.034;2024-02-21T01:43:26;99936.38;;;18.80;49.12
83264;BME280;73156;50.988;11.034;2024-02-21T01:45:54;99924.00;;;18.76;48.82
83264;BME280;73156;50.988;11.034;2024-02-21T01:48:21;99963.56;;;18.96;49.06
83264;BME280;73156;50.988;11.034;2024-02-21T01:50:48;99959.69;;;18.97;49.05
83264;BME280;73156;50.988;11.034;2024-02-21T01:53:17;99954.97;;;18.98;48.92
83264;BME280;73156;50.988;11.034;2024-02-21T01:55:47;99946.59;;;18.98;48.95
83264;BME280;73156;50.988;11.034;2024-02-21T01:58:16;99935.91;;;18.95;48.90
83264;BME280;73156;50.988;11.034;2024-02-21T02:00:43;99934.06;;;18.89;48.98
83264;BME280;73156;50.988;11.034;2024-02-21T02:03:10;99940.16;;;18.97;48.85
83264;BME280;73156;50.988;11.034;2024-02-21T02:05:50;99942.94;;;18.97;48.88
83264;BME280;73156;50.988;11.034;2024-02-21T02:08:18;99946.84;;;18.96;49.01
83264;BME280;73156;50.988;11.034;2024-02-21T02:10:44;99945.97;;;18.96;49.05
83264;BME280;73156;50.988;11.034;2024-02-21T02:13:09;99949.25;;;18.93;48.72
83264;BME280;73156;50.988;11.034;2024-02-21T02:15:42;99945.97;;;18.96;48.89
83264;BME280;73156;50.988;11.034;2024-02-21T02:18:08;99951.56;;;18.96;48.87
83264;BME280;73156;50.988;11.034;2024-02-21T02:20:34;99956.03;;;18.97;48.85
83264;BME280;73156;50.988;11.034;2024-02-21T02:23:24;99918.81;;;18.80;48.79
83264;BME280;73156;50.988;11.034;2024-02-21T02:25:48;99929.22;;;18.84;48.82
83264;BME280;73156;50.988;11.034;2024-02-21T02:28:17;99956.03;;;18.97;48.93
83264;BME280;73156;50.988;11.034;2024-02-21T02:30:42;99940.13;;;18.86;48.80
83264;BME280;73156;50.988;11.034;2024-02-21T02:33:07;99949.63;;;18.96;48.86
83264;BME280;73156;50.988;11.034;2024-02-21T02:35:33;99913.72;;;18.77;49.03
83264;BME280;73156;50.988;11.034;2024-02-21T02:38:00;99946.84;;;18.96;48.68
83264;BME280;73156;50.988;11.034;2024-02-21T02:40:25;99930.94;;;18.85;48.68
83264;BME280;73156;50.988;11.034;2024-02-21T02:42:51;99955.19;;;18.96;48.72
83264;BME280;73156;50.988;11.034;2024-02-21T02:45:17;99940.41;;;18.96;48.94
83264;BME280;73156;50.988;11.034;2024-02-21T02:47:44;99942.09;;;18.97;48.78
83264;BME280;73156;50.988;11.034;2024-02-21T02:50:11;99928.50;;;18.89;48.79
83264;BME280;73156;50.988;11.034;2024-02-21T02:52:36;99942.09;;;18.97;48.88
83264;BME280;73156;50.988;11.034;2024-02-21T02:55:01;99930.09;;;18.96;49.08
83264;BME280;73156;50.988;11.034;2024-02-21T02:57:27;99932.91;;;18.96;48.63
83264;BME280;73156;50.988;11.034;2024-02-21T02:59:52;99930.59;;;18.93;48.67
83264;BME280;73156;50.988;11.034;2024-02-21T03:02:17;99929.25;;;18.96;48.72
83264;BME280;73156;50.988;11.034;2024-02-21T03:04:43;99923.06;;;18.94;48.77
83264;BME280;73156;50.988;11.034;2024-02-21T03:07:09;99906.19;;;18.89;48.46
83264;BME280;73156;50.988;11.034;2024-02-21T03:09:34;99847.78;;;18.59;48.85
83264;BME280;73156;50.988;11.034;2024-02-21T03:11:59;99910.59;;;18.96;48.68
83264;BME280;73156;50.988;11.034;2024-02-21T03:14:30;99908.88;;;18.95;48.68
83264;BME280;73156;50.988;11.034;2024-02-21T03:16:56;99897.72;;;18.95;48.63
83264;BME280;73156;50.988;11.034;2024-02-21T03:19:22;99896.88;;;18.95;48.59
83264;BME280;73156;50.988;11.034;2024-02-21T03:21:47;99893.22;;;18.94;48.67
83264;BME280;73156;50.988;11.034;2024-02-21T03:24:13;99898.81;;;18.94;48.62
83264;BME280;73156;50.988;11.034;2024-02-21T03:26:38;99907.19;;;18.94;48.63
83264;BME280;73156;50.988;11.034;2024-02-21T03:29:03;99846.78;;;18.65;48.55
83264;BME280;73156;50.988;11.034;2024-02-21T03:31:29;99898.81;;;18.94;48.56
83264;BME280;73156;50.988;11.034;2024-02-21T03:33:54;99859.38;;;18.68;48.60
83264;BME280;73156;50.988;11.034;2024-02-21T03:36:19;99892.03;;;18.90;48.61
83264;BME280;73156;50.988;11.034;2024-02-21T03:38:44;99903.56;;;18.94;48.47
83264;BME280;73156;50.988;11.034;2024-02-21T03:41:10;99899.06;;;18.93;48.36
83264;BME280;73156;50.988;11.034;2024-02-21T03:43:37;99873.47;;;18.84;48.46
83264;BME280;73156;50.988;11.034;2024-02-21T03:46:03;99878.94;;;18.91;48.59
83264;BME280;73156;50.988;11.034;2024-02-21T03:48:28;99878.47;;;18.94;48.69
83264;BME280;73156;50.988;11.034;2024-02-21T03:50:53;99870.94;;;18.94;48.47
83264;BME280;73156;50.988;11.034;2024-02-21T03:53:18;99863.66;;;18.93;48.66
83264;BME280;73156;50.988;11.034;2024-02-21T03:55:44;99860.63;;;18.95;48.56
83264;BME280;73156;50.988;11.034;2024-02-21T03:58:09;99838.56;;;18.82;48.44
83264;BME280;73156;50.988;11.034;2024-02-21T04:00:34;99852.50;;;18.93;48.47
83264;BME280;73156;50.988;11.034;2024-02-21T04:03:00;99833.38;;;18.85;48.50
83264;BME280;73156;50.988;11.034;2024-02-21T04:05:25;99846.94;;;18.93;48.42
83264;BME280;73156;50.988;11.034;2024-02-21T04:07:50;99851.66;;;18.93;48.53
83264;BME280;73156;50.988;11.034;2024-02-21T04:10:17;99846.06;;;18.93;48.56
83264;BME280;73156;50.988;11.034;2024-02-21T04:12:42;99815.28;;;18.76;48.51
83264;BME280;73156;50.988;11.034;2024-02-21T04:15:07;99838.56;;;18.93;48.60
83264;BME280;73156;50.988;11.034;2024-02-21T04:17:34;99834.94;;;18.93;48.50
83264;BME280;73156;50.988;11.034;2024-02-21T04:20:04;99809.97;;;18.75;48.60
83264;BME280;73156;50.988;11.034;2024-02-21T04:22:31;99831.31;;;18.92;48.49
83264;BME280;73156;50.988;11.034;2024-02-21T04:24:59;99805.00;;;18.77;48.53
83264;BME280;73156;50.988;11.034;2024-02-21T04:27:24;99795.31;;;18.79;48.48
83264;BME280;73156;50.988;11.034;2024-02-21T04:29:49;99824.88;;;18.92;48.66
83264;BME280;73156;50.988;11.034;2024-02-21T04:32:14;99821.22;;;18.91;48.59
83264;BME280;73156;50.988;11.034;2024-02-21T04:34:41;99824.63;;;18.93;48.56
83264;BME280;73156;50.988;11.034;2024-02-21T04:37:06;99823.78;;;18.93;48.88
83264;BME280;73156;50.988;11.034;2024-02-21T04:39:31;99838.56;;;18.93;48.45
83264;BME280;73156;50.988;11.034;2024-02-21T04:41:56;99785.97;;;18.62;48.33
83264;BME280;73156;50.988;11.034;2024-02-21T04:44:22;99832.13;;;18.93;48.56
83264;BME280;73156;50.988;11.034;2024-02-21T04:46:47;99840.50;;;18.93;48.63
83264;BME280;73156;50.988;11.034;2024-02-21T04:49:12;99834.09;;;18.92;48.59
83264;BME280;73156;50.988;11.034;2024-02-21T04:51:39;99829.34;;;18.93;48.65
83264;BME280;73156;50.988;11.034;2024-02-21T04:54:04;99834.94;;;18.93;48.75
83264;BME280;73156;50.988;11.034;2024-02-21T04:56:30;99822.09;;;18.92;48.71
83264;BME280;73156;50.988;11.034;2024-02-21T04:58:55;99816.50;;;18.92;48.74
83264;BME280;73156;50.988;11.034;2024-02-21T05:01:20;99757.25;;;18.62;48.59
83264;BME280;73156;50.988;11.034;2024-02-21T05:03:45;99799.78;;;18.92;48.72
83264;BME280;73156;50.988;11.034;2024-02-21T05:06:11;99795.06;;;18.92;48.72
83264;BME280;73156;50.988;11.034;2024-02-21T05:08:36;99777.38;;;18.87;48.81
83264;BME280;73156;50.988;11.034;2024-02-21T05:11:01;99777.97;;;18.89;48.75
83264;BME280;73156;50.988;11.034;2024-02-21T05:13:26;99751.66;;;18.73;48.49
83264;BME280;73156;50.988;11.034;2024-02-21T05:15:52;99779.66;;;18.90;48.51
83264;BME280;73156;50.988;11.034;2024-02-21T05:18:17;99705.91;;;18.46;48.65
83264;BME280;73156;50.988;11.034;2024-02-21T05:20:42;99727.56;;;18.67;48.30
83264;BME280;73156;50.988;11.034;2024-02-21T05:23:07;99772.00;;;18.97;48.75
83264;BME280;73156;50.988;11.034;2024-02-21T05:25:33;99773.72;;;18.98;49.18
83264;BME280;73156;50.988;11.034;2024-02-21T05:27:58;99737.38;;;18.81;49.25
83264;BME280;73156;50.988;11.034;2024-02-21T05:30:27;99746.72;;;18.87;49.49
83264;BME280;73156;50.988;11.034;2024-02-21T05:32:52;99760.13;;;19.01;49.31
83264;BME280;73156;50.988;11.034;2024-02-21T05:35:17;99756.38;;;18.96;49.09
83264;BME280;73156;50.988;11.034;2024-02-21T05:37:42;99735.06;;;18.78;49.02
83264;BME280;73156;50.988;11.034;2024-02-21T05:40:08;99739.06;;;18.71;48.95
83264;BME280;73156;50.988;11.034;2024-02-21T05:42:34;99770.69;;;18.88;49.12
83264;BME280;73156;50.988;11.034;2024-02-21T05:44:59;99773.50;;;18.99;48.93
83264;BME280;73156;50.988;11.034;2024-02-21T05:47:24;99763.06;;;18.95;48.94
83264;BME280;73156;50.988;11.034;2024-02-21T05:49:49;99727.34;;;18.69;48.88
83264;BME280;73156;50.988;11.034;2024-02-21T05:52:18;99742.34;;;18.91;48.97
83264;BME280;73156;50.988;11.034;2024-02-21T05:54:43;99732.88;;;18.80;49.06
83264;BME280;73156;50.988;11.034;2024-02-21T05:57:09;99751.66;;;18.96;48.92
83264;BME280;73156;50.988;11.034;2024-02-21T05:59:34;99732.53;;;18.88;49.02
83264;BME280;73156;50.988;11.034;2024-02-21T06:02:01;99749.47;;;18.98;48.91
83264;BME280;73156;50.988;11.034;2024-02-21T06:04:28;99750.56;;;18.97;48.83
83264;BME280;73156;50.988;11.034;2024-02-21T06:06:55;99692.31;;;18.61;48.79
83264;BME280;73156;50.988;11.034;2024-02-21T06:09:20;99718.84;;;18.87;48.99
83264;BME280;73156;50.988;11.034;2024-02-21T06:11:45;99713.13;;;18.93;48.81
83264;BME280;73156;50.988;11.034;2024-02-21T06:14:11;99668.31;;;18.72;48.68
83264;BME280;73156;50.988;11.034;2024-02-21T06:16:36;99699.50;;;18.97;48.84
83264;BME280;73156;50.988;11.034;2024-02-21T06:19:02;99712.63;;;18.96;48.77
83264;BME280;73156;50.988;11.034;2024-02-21T06:21:31;99662.75;;;18.60;48.70
83264;BME280;73156;50.988;11.034;2024-02-21T06:23:56;99739.66;;;18.96;48.84
83264;BME280;73156;50.988;11.034;2024-02-21T06:26:21;99747.16;;;18.95;48.73
83264;BME280;73156;50.988;11.034;2024-02-21T06:28:47;99739.56;;;18.91;48.63
83264;BME280;73156;50.988;11.034;2024-02-21T06:31:12;99715.44;;;18.73;48.55
83264;BME280;73156;50.988;11.034;2024-02-21T06:33:37;99757.47;;;18.95;48.76
83264;BME280;73156;50.988;11.034;2024-02-21T06:36:02;99758.09;;;18.85;48.75
83264;BME280;73156;50.988;11.034;2024-02-21T06:38:28;99718.59;;;18.65;48.69
83264;BME280;73156;50.988;11.034;2024-02-21T06:40:53;99738.97;;;18.77;48.63
83264;BME280;73156;50.988;11.034;2024-02-21T06:43:20;99765.72;;;18.90;48.74
83264;BME280;73156;50.988;11.034;2024-02-21T06:45:45;99763.44;;;18.87;48.72
83264;BME280;73156;50.988;11.034;2024-02-21T06:48:16;99658.53;;;18.23;48.59
83264;BME280;73156;50.988;11.034;2024-02-21T06:50:41;99787.53;;;18.93;48.49
83264;BME280;73156;50.988;11.034;2024-02-21T06:53:06;99786.47;;;18.94;48.61
83264;BME280;73156;50.988;11.034;2024-02-21T06:55:31;99783.69;;;18.94;48.43
83264;BME280;73156;50.988;11.034;2024-02-21T06:57:56;99788.38;;;18.93;48.54
83264;BME280;73156;50.988;11.034;2024-02-21T07:00:22;99792.03;;;18.94;48.54
83264;BME280;73156;50.988;11.034;2024-02-21T07:02:48;99774.22;;;18.83;48.32
83264;BME280;73156;50.988;11.034;2024-02-21T07:05:13;99791.41;;;18.92;48.65
83264;BME280;73156;50.988;11.034;2024-02-21T07:07:38;99785.84;;;18.92;48.68
83264;BME280;73156;50.988;11.034;2024-02-21T07:10:05;99775.56;;;18.92;48.57
83264;BME280;73156;50.988;11.034;2024-02-21T07:12:31;99780.25;;;18.92;48.45
83264;BME280;73156;50.988;11.034;2024-02-21T07:14:56;99769.97;;;18.92;48.67
83264;BME280;73156;50.988;11.034;2024-02-21T07:17:21;99740.50;;;18.73;48.61
83264;BME280;73156;50.988;11.034;2024-02-21T07:19:46;99765.47;;;18.91;48.56
83264;BME280;73156;50.988;11.034;2024-02-21T07:22:12;99762.69;;;18.91;48.68
83264;BME280;73156;50.988;11.034;2024-02-21T07:24:37;99765.47;;;18.91;48.56
83264;BME280;73156;50.988;11.034;2024-02-21T07:27:02;99765.47;;;18.91;48.57
83264;BME280;73156;50.988;11.034;2024-02-21T07:29:30;99770.22;;;18.91;48.69
83264;BME280;73156;50.988;11.034;2024-02-21T07:31:55;99728.06;;;18.64;48.48
83264;BME280;73156;50.988;11.034;2024-02-21T07:34:20;99773.84;;;18.91;48.45
83264;BME280;73156;50.988;11.034;2024-02-21T07:36:46;99773.84;;;18.91;48.40
83264;BME280;73156;50.988;11.034;2024-02-21T07:39:11;99776.63;;;18.91;48.41
83264;BME280;73156;50.988;11.034;2024-02-21T07:41:36;99783.06;;;18.92;48.57
83264;BME280;73156;50.988;11.034;2024-02-21T07:44:03;99779.41;;;18.91;48.41
83264;BME280;73156;50.988;11.034;2024-02-21T07:46:28;99771.28;;;18.90;48.62
83264;BME280;73156;50.988;11.034;2024-02-21T07:48:54;99778.34;;;18.92;48.64
83264;BME280;73156;50.988;11.034;2024-02-21T07:51:19;99746.09;;;18.73;48.61
83264;BME280;73156;50.988;11.034;2024-02-21T07:53:44;99785.84;;;18.92;48.63
83264;BME280;73156;50.988;11.034;2024-02-21T07:56:11;99739.81;;;18.66;48.64
83264;BME280;73156;50.988;11.034;2024-02-21T07:58:37;99786.69;;;18.92;48.49
83264;BME280;73156;50.988;11.034;2024-02-21T08:01:02;99770.94;;;18.86;48.57
83264;BME280;73156;50.988;11.034;2024-02-21T08:03:27;99781.13;;;18.92;48.45
83264;BME280;73156;50.988;11.034;2024-02-21T08:05:53;99774.69;;;18.92;48.76
83264;BME280;73156;50.988;11.034;2024-02-21T08:08:18;99769.72;;;18.94;48.50
83264;BME280;73156;50.988;11.034;2024-02-21T08:10:46;99755.19;;;18.92;48.50
83264;BME280;73156;50.988;11.034;2024-02-21T08:13:11;99763.28;;;18.93;48.46
83264;BME280;73156;50.988;11.034;2024-02-21T08:15:36;99763.28;;;18.93;48.49
83264;BME280;73156;50.988;11.034;2024-02-21T08:18:04;99751.28;;;18.93;48.54
83264;BME280;73156;50.988;11.034;2024-02-21T08:20:29;99749.34;;;18.93;48.39
83264;BME280;73156;50.988;11.034;2024-02-21T08:22:54;99701.50;;;18.73;48.66
83264;BME280;73156;50.988;11.034;2024-02-21T08:25:19;99729.47;;;18.90;48.57
83264;BME280;73156;50.988;11.034;2024-02-21T08:27:45;99717.63;;;18.83;48.50
83264;BME280;73156;50.988;11.034;2024-02-21T08:30:11;99742.91;;;18.93;48.44
83264;BME280;73156;50.988;11.034;2024-02-21T08:32:36;99754.06;;;18.93;48.33
83264;BME280;73156;50.988;11.034;2024-02-21T08:35:02;99742.59;;;18.89;48.50
83264;BME280;73156;50.988;11.034;2024-02-21T08:37:28;99746.19;;;18.90;48.28
83264;BME280;73156;50.988;11.034;2024-02-21T08:39:53;99744.63;;;18.94;48.37
83264;BME280;73156;50.988;11.034;2024-02-21T08:42:18;99743.53;;;18.95;48.31
83264;BME280;73156;50.988;11.034;2024-02-21T08:44:44;99746.31;;;18.95;48.37
83264;BME280;73156;50.988;11.034;2024-02-21T08:47:09;99719.69;;;18.76;48.48
83264;BME280;73156;50.988;11.034;2024-02-21T08:49:35;99746.72;;;18.87;48.51
83264;BME280;73156;50.988;11.034;2024-02-21T08:52:01;99753.84;;;18.94;48.39
83264;BME280;73156;50.988;11.034;2024-02-21T08:54:26;99752.72;;;18.95;48.32
83264;BME280;73156;50.988;11.034;2024-02-21T08:56:52;99744.38;;;18.95;48.44
83264;BME280;73156;50.988;11.034;2024-02-21T08:59:17;99744.38;;;18.95;48.47
83264;BME280;73156;50.988;11.034;2024-02-21T09:01:43;99745.22;;;18.96;48.54
83264;BME280;73156;50.988;11.034;2024-02-21T09:04:09;99733.34;;;18.89;48.33
83264;BME280;73156;50.988;11.034;2024-02-21T09:06:34;99733.59;;;18.87;48.40
83264;BME280;73156;50.988;11.034;2024-02-21T09:09:02;99739.66;;;18.96;48.42
83264;BME280;73156;50.988;11.034;2024-02-21T09:11:27;99734.06;;;18.96;48.32
83264;BME280;73156;50.988;11.034;2024-02-21T09:13:53;99731.28;;;18.96;48.34
83264;BME280;73156;50.988;11.034;2024-02-21T09:16:18;99718.31;;;18.90;48.48
83264;BME280;73156;50.988;11.034;2024-02-21T09:18:43;99704.28;;;18.85;48.46
83264;BME280;73156;50.988;11.034;2024-02-21T09:21:08;99675.94;;;18.76;48.49
83264;BME280;73156;50.988;11.034;2024-02-21T09:23:34;99708.75;;;18.97;48.31
83264;BME280;73156;50.988;11.034;2024-02-21T09:25:59;99689.47;;;18.96;48.33
83264;BME280;73156;50.988;11.034;2024-02-21T09:28:28;99666.13;;;18.74;48.36
83264;BME280;73156;50.988;11.034;2024-02-21T09:30:53;99695.41;;;18.99;48.18
83264;BME280;73156;50.988;11.034;2024-02-21T09:33:19;99680.63;;;18.87;48.29
83264;BME280;73156;50.988;11.034;2024-02-21T09:35:44;99696.47;;;18.98;48.18
83264;BME280;73156;50.988;11.034;2024-02-21T09:38:09;99700.72;;;19.01;48.27
83264;BME280;73156;50.988;11.034;2024-02-21T09:40:34;99699.88;;;19.00;48.25
83264;BME280;73156;50.988;11.034;2024-02-21T09:43:04;99690.41;;;19.01;48.09
83264;BME280;73156;50.988;11.034;2024-02-21T09:45:31;99690.41;;;19.01;48.04
83264;BME280;73156;50.988;11.034;2024-02-21T09:48:36;99682.91;;;19.02;48.18
83264;BME280;73156;50.988;11.034;2024-02-21T09:51:07;99681.81;;;19.03;48.01
83264;BME280;73156;50.988;11.034;2024-02-21T09:53:34;99688.25;;;19.03;48.04
83264;BME280;73156;50.988;11.034;2024-02-21T09:56:03;99680.94;;;19.02;47.96
83264;BME280;73156;50.988;11.034;2024-02-21T09:58:29;99682.44;;;19.05;47.95
83264;BME280;73156;50.988;11.034;2024-02-21T10:01:03;99674.88;;;19.05;47.97
83264;BME280;73156;50.988;11.034;2024-02-21T10:03:32;99672.97;;;19.06;47.97
83264;BME280;73156;50.988;11.034;2024-02-21T10:05:58;99668.72;;;19.03;47.89
83264;BME280;73156;50.988;11.034;2024-02-21T10:08:25;99667.13;;;19.07;48.05
83264;BME280;73156;50.988;11.034;2024-02-21T10:10:51;99669.06;;;19.07;47.87
83264;BME280;73156;50.988;11.034;2024-02-21T10:13:28;99660.47;;;19.08;47.88
83264;BME280;73156;50.988;11.034;2024-02-21T10:16:07;99656.56;;;19.09;47.85
83264;BME280;73156;50.988;11.034;2024-02-21T10:18:34;99667.22;;;19.12;47.75
83264;BME280;73156;50.988;11.034;2024-02-21T10:21:03;99656.69;;;19.14;47.54
83264;BME280;73156;50.988;11.034;2024-02-21T10:23:29;99656.44;;;19.16;47.38
83264;BME280;73156;50.988;11.034;2024-02-21T10:26:04;99649.50;;;19.18;47.54
83264;BME280;73156;50.988;11.034;2024-02-21T10:28:30;99647.31;;;19.20;47.41
83264;BME280;73156;50.988;11.034;2024-02-21T10:30:55;99633.53;;;19.14;47.49
83264;BME280;73156;50.988;11.034;2024-02-21T10:33:20;99648.16;;;19.21;47.35
83264;BME280;73156;50.988;11.034;2024-02-21T10:35:47;99602.53;;;18.99;47.44
83264;BME280;73156;50.988;11.034;2024-02-21T10:38:12;99597.91;;;19.04;47.42
83264;BME280;73156;50.988;11.034;2024-02-21T10:40:38;99612.31;;;19.13;47.41
83264;BME280;73156;50.988;11.034;2024-02-21T10:43:03;99627.94;;;19.25;47.41
83264;BME280;73156;50.988;11.034;2024-02-21T10:45:35;99641.03;;;19.25;47.31
83264;BME280;73156;50.988;11.034;2024-02-21T10:48:22;99632.41;;;19.26;47.49
83264;BME280;73156;50.988;11.034;2024-02-21T10:53:32;99621.59;;;19.30;47.28
83264;BME280;73156;50.988;11.034;2024-02-21T10:56:30;99626.09;;;19.31;47.28
83264;BME280;73156;50.988;11.034;2024-02-21T10:59:05;99596.66;;;19.12;47.39
83264;BME280;73156;50.988;11.034;2024-02-21T11:01:31;99593.03;;;19.11;47.31
83264;BME280;73156;50.988;11.034;2024-02-21T11:04:04;99604.84;;;19.30;47.19
83264;BME280;73156;50.988;11.034;2024-02-21T11:06:30;99599.97;;;19.37;47.28
83264;BME280;73156;50.988;11.034;2024-02-21T11:09:05;99598.03;;;19.37;47.31
83264;BME280;73156;50.988;11.034;2024-02-21T11:11:41;99589.66;;;19.37;47.12
83264;BME280;73156;50.988;11.034;2024-02-21T11:14:18;99577.63;;;19.37;47.36
83264;BME280;73156;50.988;11.034;2024-02-21T11:16:44;99564.28;;;19.39;47.27
83264;BME280;73156;50.988;11.034;2024-02-21T11:19:19;99558.47;;;19.40;47.05
83264;BME280;73156;50.988;11.034;2024-02-21T11:21:45;99540.63;;;19.41;47.28
83264;BME280;73156;50.988;11.034;2024-02-21T11:24:10;99542.06;;;19.44;47.21
83264;BME280;73156;50.988;11.034;2024-02-21T11:26:37;99536.47;;;19.44;47.33
83264;BME280;73156;50.988;11.034;2024-02-21T11:29:03;99486.91;;;19.18;47.20
83264;BME280;73156;50.988;11.034;2024-02-21T11:31:44;99529.53;;;19.46;47.26
83264;BME280;73156;50.988;11.034;2024-02-21T11:34:11;99527.59;;;19.47;47.29
83264;BME280;73156;50.988;11.034;2024-02-21T11:36:49;99512.78;;;19.46;46.98
83264;BME280;73156;50.988;11.034;2024-02-21T11:39:19;99513.16;;;19.50;47.08
83264;BME280;73156;50.988;11.034;2024-02-21T11:44:29;99494.56;;;19.39;47.17
83264;BME280;73156;50.988;11.034;2024-02-21T11:46:54;99498.69;;;19.53;47.50
83264;BME280;73156;50.988;11.034;2024-02-21T11:49:20;99483.72;;;19.42;47.21
83264;BME280;73156;50.988;11.034;2024-02-21T11:51:45;99504.03;;;19.55;47.28
83264;BME280;73156;50.988;11.034;2024-02-21T11:54:11;99496.22;;;19.57;47.14
83264;BME280;73156;50.988;11.034;2024-02-21T11:56:38;99493.44;;;19.57;47.27
83264;BME280;73156;50.988;11.034;2024-02-21T11:59:03;99486.75;;;19.58;47.21
83264;BME280;73156;50.988;11.034;2024-02-21T12:01:29;99461.25;;;19.49;47.24
83264;BME280;73156;50.988;11.034;2024-02-21T12:03:54;99437.66;;;19.40;47.13
83264;BME280;73156;50.988;11.034;2024-02-21T12:06:21;99455.66;;;19.49;47.20
83264;BME280;73156;50.988;11.034;2024-02-21T12:08:47;99460.56;;;19.59;47.34
83264;BME280;73156;50.988;11.034;2024-02-21T12:11:19;99459.44;;;19.60;47.28
83264;BME280;73156;50.988;11.034;2024-02-21T12:13:46;99434.50;;;19.53;47.27
83264;BME280;73156;50.988;11.034;2024-02-21T12:16:15;99449.13;;;19.60;46.94
83264;BME280;73156;50.988;11.034;2024-02-21T12:18:41;99404.16;;;19.40;47.20
83264;BME280;73156;50.988;11.034;2024-02-21T12:21:06;99413.00;;;19.53;47.10
83264;BME280;73156;50.988;11.034;2024-02-21T12:23:32;99356.75;;;19.23;47.19
83264;BME280;73156;50.988;11.034;2024-02-21T12:25:59;99394.78;;;19.46;47.24
83264;BME280;73156;50.988;11.034;2024-02-21T12:28:24;99374.59;;;19.39;47.25
83264;BME280;73156;50.988;11.034;2024-02-21T12:30:49;99402.25;;;19.62;47.44
83264;BME280;73156;50.988;11.034;2024-02-21T12:33:14;99400.31;;;19.63;47.14
83264;BME280;73156;50.988;11.034;2024-02-21T12:35:40;99408.44;;;19.64;47.16
83264;BME280;73156;50.988;11.034;2024-02-21T12:38:05;99376.94;;;19.47;47.22
83264;BME280;73156;50.988;11.034;2024-02-21T12:40:30;99392.53;;;19.65;46.79
83264;BME280;73156;50.988;11.034;2024-02-21T12:42:59;99392.53;;;19.65;46.91
83264;BME280;73156;50.988;11.034;2024-02-21T12:45:24;99405.41;;;19.66;47.09
83264;BME280;73156;50.988;11.034;2024-02-21T12:47:50;99378.03;;;19.46;47.19
83264;BME280;73156;50.988;11.034;2024-02-21T12:50:15;99354.03;;;19.45;46.93
83264;BME280;73156;50.988;11.034;2024-02-21T12:52:40;99379.44;;;19.65;46.94